This is the latest recevied weather packets stored in our database for station/object DL1AIE-13. If no packets are shown the sender has not sent any weather packets the latest 10 day(s).
| Time | Temp. | Humidity | Pressure | Rain* | Wind** | Luminosity | Snow |
|---|---|---|---|---|---|---|---|
| 1777990041 | 18.89° C | 72% | 1007 hPa | 0 mm | - | - | - |
| 1777989437 | 20° C | 65% | 1007 hPa | 0 mm | - | - | - |
| 1777988854 | 20° C | 62% | 1007.1 hPa | 0 mm | - | - | - |
| 1777988250 | 20.56° C | 63% | 1007.2 hPa | 0 mm | - | - | - |
| 1777987647 | 20.56° C | 62% | 1007.2 hPa | 0 mm | - | - | - |
| 1777987043 | 20.56° C | 59% | 1007.3 hPa | 0 mm | - | - | - |
| 1777986439 | 20° C | 59% | 1007.3 hPa | 0 mm | - | - | - |
| 1777985836 | 20° C | 59% | 1007.2 hPa | 0 mm | - | - | - |
| 1777985252 | 20° C | 60% | 1007.2 hPa | 0 mm | - | - | - |
| 1777984649 | 21.11° C | 56% | 1007.5 hPa | 0 mm | - | - | - |
| 1777984049 | 21.67° C | 57% | 1007.5 hPa | 0 mm | - | - | - |
| 1777983442 | 21.11° C | 58% | 1007.6 hPa | 0 mm | - | - | - |
| 1777982838 | 21.11° C | 59% | 1007.5 hPa | 0 mm | - | - | - |
| 1777982255 | 21.67° C | 55% | 1007.7 hPa | 0 mm | - | - | - |
| 1777981651 | 20.56° C | 59% | 1007.9 hPa | 0 mm | - | - | - |
| 1777981050 | 21.11° C | 57% | 1007.9 hPa | 0 mm | - | - | - |
| 1777980444 | 21.11° C | 57% | 1008.1 hPa | 0 mm | - | - | - |
| 1777979840 | 21.11° C | 56% | 1008.2 hPa | 0 mm | - | - | - |
| 1777979237 | 21.67° C | 56% | 1008.2 hPa | 0 mm | - | - | - |
| 1777978653 | 21.11° C | 57% | 1008.3 hPa | 0 mm | - | - | - |
| 1777978050 | 21.11° C | 57% | 1008.6 hPa | 0 mm | - | - | - |
| 1777977446 | 20.56° C | 58% | 1008.7 hPa | 0 mm | - | - | - |
| 1777976842 | 20° C | 60% | 1008.8 hPa | 0 mm | - | - | - |
| 1777976239 | 20° C | 59% | 1008.8 hPa | 0 mm | - | - | - |
| 1777975655 | 20.56° C | 62% | 1008.8 hPa | 0 mm | - | - | - |
* Rain latest hour (hover to see other rain measurements)
** Current wind speed in m/s (hover to see current wind gust speed)